createdAt,value
2022-08-23T00:00:13.007Z,12.33
2022-08-23T00:03:40.157Z,11.00
2022-08-23T00:06:54.384Z,12.00
2022-08-23T00:10:05.858Z,13.67
2022-08-23T00:13:11.484Z,11.00
2022-08-23T00:16:16.902Z,15.00
2022-08-23T00:19:25.485Z,9.67
2022-08-23T00:22:30.250Z,12.67
2022-08-23T00:25:36.961Z,11.00
2022-08-23T00:28:41.611Z,10.00
2022-08-23T00:31:52.512Z,10.67
2022-08-23T00:34:58.953Z,9.00
2022-08-23T00:38:33.199Z,10.33
2022-08-23T00:41:33.869Z,10.00
2022-08-23T00:44:55.680Z,10.00
2022-08-23T00:48:01.940Z,11.67
2022-08-23T00:51:15.897Z,11.67
2022-08-23T00:54:22.083Z,9.33
2022-08-23T00:57:27.106Z,11.00
2022-08-23T01:00:32.928Z,13.00
2022-08-23T01:03:40.938Z,12.33
2022-08-23T01:06:53.820Z,11.67
2022-08-23T01:10:06.511Z,12.00
2022-08-23T01:13:17.499Z,12.00
2022-08-23T01:16:29.564Z,13.00
2022-08-23T01:19:38.841Z,12.33
2022-08-23T01:22:56.870Z,10.33
2022-08-23T01:26:02.516Z,9.00
2022-08-23T01:29:08.087Z,7.00
2022-08-23T01:32:16.747Z,9.67
2022-08-23T01:38:32.822Z,13.67
2022-08-23T01:41:41.949Z,10.00
2022-08-23T01:44:46.603Z,10.33
2022-08-23T01:47:50.998Z,11.00
2022-08-23T01:50:57.110Z,10.33
2022-08-23T01:54:00.795Z,11.00
2022-08-23T01:57:08.792Z,11.00
2022-08-23T02:00:13.491Z,10.67
2022-08-23T02:03:17.695Z,11.67
2022-08-23T02:06:21.549Z,11.67
2022-08-23T02:09:26.486Z,11.00
2022-08-23T02:12:36.455Z,11.33
2022-08-23T02:15:51.610Z,11.00
2022-08-23T02:19:00.160Z,9.33
2022-08-23T02:22:05.255Z,10.00
2022-08-23T02:25:10.209Z,9.67
2022-08-23T02:28:15.934Z,8.00
2022-08-23T02:31:20.056Z,11.33
2022-08-23T02:34:25.243Z,10.00
2022-08-23T02:37:32.647Z,11.00
2022-08-23T02:40:40.367Z,8.67
2022-08-23T02:43:47.559Z,9.67
2022-08-23T02:46:53.907Z,9.67
2022-08-23T02:49:57.551Z,10.00
2022-08-23T02:53:02.617Z,8.67
2022-08-23T02:56:21.183Z,11.00
2022-08-23T02:59:32.184Z,9.00
2022-08-23T03:02:38.149Z,9.00
2022-08-23T03:05:43.780Z,5.67
2022-08-23T03:08:49.670Z,5.67
2022-08-23T03:11:58.233Z,4.67
2022-08-23T03:15:07.036Z,5.33
2022-08-23T03:18:13.249Z,3.33
2022-08-23T03:21:18.391Z,5.00
2022-08-23T03:24:23.176Z,3.00
2022-08-23T03:27:28.267Z,3.33
2022-08-23T03:30:34.759Z,3.33
2022-08-23T03:33:40.727Z,4.33
2022-08-23T03:36:45.056Z,4.67
2022-08-23T03:39:50.450Z,3.33
2022-08-23T03:42:54.984Z,4.00
2022-08-23T03:46:08.430Z,5.00
2022-08-23T03:49:17.562Z,4.00
2022-08-23T03:52:30.373Z,5.00
2022-08-23T03:55:42.108Z,5.00
2022-08-23T03:58:50.765Z,4.33
2022-08-23T04:02:00.322Z,4.00
2022-08-23T04:05:06.641Z,4.33
2022-08-23T04:08:33.288Z,4.33
2022-08-23T04:11:39.169Z,4.00
2022-08-23T04:14:45.915Z,4.00
2022-08-23T04:17:57.617Z,5.67
2022-08-23T04:21:07.659Z,4.00
2022-08-23T04:24:15.650Z,4.67
2022-08-23T04:27:24.123Z,5.00
2022-08-23T04:30:30.408Z,4.00
2022-08-23T04:33:40.549Z,5.00
2022-08-23T04:37:02.826Z,5.67
2022-08-23T04:40:26.795Z,6.00
2022-08-23T04:43:31.774Z,6.00
2022-08-23T04:46:40.063Z,6.00
2022-08-23T04:49:46.973Z,7.00
2022-08-23T04:52:51.438Z,6.00
2022-08-23T04:55:57.059Z,6.67
2022-08-23T04:59:06.434Z,6.33
2022-08-23T05:02:14.545Z,6.00
2022-08-23T05:05:29.324Z,8.33
2022-08-23T05:08:38.076Z,7.33
2022-08-23T05:11:44.727Z,9.00
2022-08-23T05:14:49.454Z,7.00
2022-08-23T05:17:55.907Z,8.00
2022-08-23T05:21:04.036Z,7.33
2022-08-23T05:24:13.774Z,7.33
2022-08-23T05:27:20.585Z,7.00
2022-08-23T05:30:28.680Z,8.00
2022-08-23T05:33:59.092Z,7.00
2022-08-23T05:37:48.679Z,9.00
2022-08-23T05:40:56.040Z,8.00
2022-08-23T05:44:05.094Z,5.00
2022-08-23T05:47:11.748Z,10.00
2022-08-23T05:50:44.073Z,3.00
2022-08-23T05:53:55.723Z,7.67
2022-08-23T05:57:01.780Z,9.00
2022-08-23T06:00:07.667Z,9.00
2022-08-23T06:03:24.147Z,9.00
2022-08-23T06:06:36.899Z,10.00
2022-08-23T06:09:45.227Z,7.00
2022-08-23T06:12:51.949Z,7.33
2022-08-23T06:16:00.307Z,8.67
2022-08-23T06:19:19.308Z,8.00
2022-08-23T06:22:24.857Z,8.00
2022-08-23T06:25:32.687Z,8.00
2022-08-23T06:28:51.042Z,6.00
2022-08-23T06:31:57.057Z,7.00
2022-08-23T06:35:38.852Z,7.67
2022-08-23T06:38:51.008Z,7.00
2022-08-23T06:42:38.393Z,7.67
2022-08-23T06:45:54.912Z,7.33
2022-08-23T06:49:05.598Z,8.00
2022-08-23T06:52:10.325Z,7.00
2022-08-23T06:55:38.738Z,6.00
2022-08-23T06:59:06.101Z,7.00
2022-08-23T07:02:28.653Z,6.00
2022-08-23T07:05:36.207Z,5.33
2022-08-23T07:08:55.493Z,6.67
2022-08-23T07:12:02.226Z,6.00
2022-08-23T07:15:14.048Z,3.00
2022-08-23T07:18:23.087Z,4.00
2022-08-23T07:21:27.710Z,3.67
2022-08-23T07:24:34.234Z,3.00
2022-08-23T07:27:41.239Z,3.00
2022-08-23T07:30:48.800Z,2.00
2022-08-23T07:33:56.000Z,2.67
2022-08-23T07:37:04.448Z,0.00
2022-08-23T07:40:38.851Z,1.00
2022-08-23T07:43:46.313Z,1.00
2022-08-23T07:46:54.402Z,0.00
2022-08-23T07:50:00.991Z,1.00
2022-08-23T07:53:09.350Z,1.00
2022-08-23T07:56:17.391Z,0.00
2022-08-23T07:59:53.979Z,0.00
2022-08-23T08:03:19.226Z,0.00
2022-08-23T08:06:56.134Z,0.00
2022-08-23T08:10:16.132Z,0.00
2022-08-23T08:13:20.405Z,0.00
2022-08-23T08:16:27.704Z,0.00
2022-08-23T08:19:35.246Z,0.00
2022-08-23T08:23:04.749Z,1.00
2022-08-23T08:26:36.180Z,0.00
2022-08-23T08:29:42.172Z,0.00
2022-08-23T08:32:47.966Z,0.00
2022-08-23T08:35:57.556Z,0.00
2022-08-23T08:39:07.360Z,0.00
2022-08-23T08:42:39.939Z,0.67
2022-08-23T08:45:59.214Z,0.00
2022-08-23T08:49:05.437Z,0.00
2022-08-23T08:52:18.906Z,0.00
2022-08-23T08:55:31.994Z,0.00
2022-08-23T08:58:44.788Z,0.00
2022-08-23T09:01:50.949Z,0.00
2022-08-23T09:05:05.537Z,1.00
2022-08-23T09:08:36.990Z,0.33
2022-08-23T09:11:52.906Z,0.00
2022-08-23T09:15:10.375Z,1.00
2022-08-23T09:18:17.128Z,1.00
2022-08-23T09:21:21.574Z,1.00
2022-08-23T09:24:28.331Z,1.00
2022-08-23T09:27:41.741Z,1.00
2022-08-23T09:30:49.832Z,2.00
2022-08-23T09:33:55.306Z,1.00
2022-08-23T09:37:19.292Z,2.00
2022-08-23T09:40:41.494Z,2.00
2022-08-23T09:43:50.356Z,3.00
2022-08-23T09:47:10.925Z,3.00
2022-08-23T09:50:29.712Z,2.33
2022-08-23T09:53:34.135Z,3.67
2022-08-23T09:57:03.300Z,3.00
2022-08-23T10:00:26.201Z,3.00
2022-08-23T10:03:31.307Z,5.00
2022-08-23T10:06:50.406Z,5.00
2022-08-23T10:09:55.867Z,5.00
2022-08-23T10:13:03.797Z,5.00
2022-08-23T10:16:19.132Z,4.67
2022-08-23T10:20:16.563Z,4.00
2022-08-23T10:23:34.090Z,5.00
2022-08-23T10:26:46.681Z,5.00
2022-08-23T10:30:03.208Z,5.67
2022-08-23T10:33:20.980Z,6.33
2022-08-23T10:36:35.169Z,6.00
2022-08-23T10:39:48.210Z,6.00
2022-08-23T10:43:07.503Z,5.67
2022-08-23T10:46:13.760Z,6.00
2022-08-23T10:49:21.360Z,6.67
2022-08-23T10:52:33.088Z,7.67
2022-08-23T10:55:55.291Z,6.00
2022-08-23T10:59:14.584Z,7.00
2022-08-23T11:02:37.300Z,8.00
2022-08-23T11:06:44.751Z,8.00
2022-08-23T11:10:09.991Z,8.00
2022-08-23T11:13:27.894Z,9.00
2022-08-23T11:16:34.211Z,10.00
2022-08-23T11:19:52.742Z,12.00
2022-08-23T11:23:16.843Z,9.33
2022-08-23T11:27:06.423Z,10.00
2022-08-23T11:30:41.524Z,11.33
2022-08-23T11:33:57.276Z,10.67
2022-08-23T11:41:12.733Z,10.00
2022-08-23T11:44:25.149Z,9.33
2022-08-23T11:47:40.486Z,7.67
2022-08-23T11:51:14.878Z,8.00
2022-08-23T11:54:42.549Z,8.00
2022-08-23T11:58:06.674Z,6.00
2022-08-23T12:01:14.197Z,5.00
2022-08-23T12:04:36.545Z,6.00
2022-08-23T12:07:49.484Z,5.00
2022-08-23T12:11:07.887Z,4.00
2022-08-23T12:14:37.947Z,3.00
2022-08-23T12:18:18.335Z,3.67
2022-08-23T12:21:31.884Z,0.67
2022-08-23T12:24:46.959Z,2.00
2022-08-23T12:28:08.590Z,2.00
2022-08-23T12:31:25.589Z,3.00
2022-08-23T12:34:51.985Z,3.00
2022-08-23T12:38:11.243Z,4.00
2022-08-23T12:41:24.137Z,3.00
2022-08-23T12:44:33.975Z,1.67
2022-08-23T12:47:43.557Z,2.67
2022-08-23T12:50:58.357Z,1.67
2022-08-23T12:54:17.053Z,2.67
2022-08-23T12:57:32.441Z,3.33
2022-08-23T13:00:40.803Z,2.67
2022-08-23T13:04:02.229Z,2.00
2022-08-23T13:07:12.433Z,2.00
2022-08-23T13:10:17.917Z,1.67
2022-08-23T13:13:27.236Z,3.00
2022-08-23T13:16:35.281Z,2.33
2022-08-23T13:19:46.456Z,2.00
2022-08-23T13:23:07.228Z,2.67
2022-08-23T13:26:26.846Z,3.33
2022-08-23T13:29:39.123Z,3.00
2022-08-23T13:32:48.212Z,3.00
2022-08-23T13:36:13.080Z,2.67
2022-08-23T13:39:18.339Z,3.00
2022-08-23T13:42:35.464Z,3.00
2022-08-23T13:45:51.645Z,1.67
2022-08-23T13:49:03.136Z,2.00
2022-08-23T13:55:44.875Z,3.33
2022-08-23T13:58:56.468Z,4.00
2022-08-23T14:02:03.488Z,4.33
2022-08-23T14:05:09.679Z,4.67
2022-08-23T14:08:18.396Z,5.00
2022-08-23T14:11:22.311Z,4.00
2022-08-23T14:14:31.648Z,6.00
2022-08-23T14:17:44.622Z,7.33
2022-08-23T14:20:51.316Z,6.67
2022-08-23T14:23:57.158Z,7.00
2022-08-23T14:27:02.149Z,7.33
2022-08-23T14:30:12.528Z,7.33
2022-08-23T14:33:16.682Z,6.33
2022-08-23T14:36:24.063Z,7.33
2022-08-23T14:39:36.459Z,8.00
2022-08-23T14:42:43.968Z,6.00
2022-08-23T14:45:54.395Z,7.00
2022-08-23T14:49:07.510Z,8.00
2022-08-23T14:52:17.410Z,6.00
2022-08-23T14:55:34.481Z,6.33
2022-08-23T14:59:06.329Z,5.00
2022-08-23T15:02:13.628Z,4.00
2022-08-23T15:05:21.850Z,4.00
2022-08-23T15:08:26.653Z,4.00
2022-08-23T15:14:58.982Z,5.00
2022-08-23T15:18:21.927Z,4.00
2022-08-23T15:21:26.627Z,3.00
2022-08-23T15:24:35.472Z,4.00
2022-08-23T15:27:40.960Z,5.00
2022-08-23T15:30:47.798Z,3.33
2022-08-23T15:33:52.986Z,5.00
2022-08-23T15:36:57.816Z,5.00
2022-08-23T15:40:09.061Z,6.67
2022-08-23T15:43:21.540Z,6.67
2022-08-23T15:46:27.356Z,4.00
2022-08-23T15:49:36.836Z,6.00
2022-08-23T15:52:44.157Z,6.00
2022-08-23T15:55:48.591Z,5.00
2022-08-23T15:58:55.596Z,7.00
2022-08-23T16:02:00.392Z,6.00
2022-08-23T16:05:07.169Z,8.00
2022-08-23T16:08:20.132Z,8.00
2022-08-23T16:11:24.402Z,9.00
2022-08-23T16:14:32.853Z,7.67
2022-08-23T16:17:37.106Z,8.00
2022-08-23T16:20:45.788Z,9.00
2022-08-23T16:23:49.932Z,8.00
2022-08-23T16:26:54.521Z,9.00
2022-08-23T16:29:59.928Z,7.67
2022-08-23T16:33:04.989Z,8.67
2022-08-23T16:36:10.067Z,9.00
2022-08-23T16:39:15.938Z,7.33
2022-08-23T16:42:21.552Z,7.00
2022-08-23T16:45:27.868Z,8.00
2022-08-23T16:48:35.047Z,7.00
2022-08-23T16:51:44.083Z,7.00
2022-08-23T16:54:49.521Z,4.33
2022-08-23T16:57:54.077Z,5.00
2022-08-23T17:01:01.216Z,7.00
2022-08-23T17:04:08.239Z,6.00
2022-08-23T17:07:18.391Z,7.00
2022-08-23T17:10:24.315Z,7.00
2022-08-23T17:13:29.790Z,7.00
2022-08-23T17:16:38.134Z,3.33
2022-08-23T17:19:52.047Z,8.00
2022-08-23T17:23:05.674Z,7.00
2022-08-23T17:26:14.148Z,8.00
2022-08-23T17:29:20.452Z,12.67
2022-08-23T17:32:26.625Z,11.00
2022-08-23T17:35:35.743Z,9.33
2022-08-23T17:38:42.227Z,11.67
2022-08-23T17:41:47.890Z,11.00
2022-08-23T17:44:52.862Z,12.00
2022-08-23T17:48:19.497Z,13.00
2022-08-23T17:51:23.491Z,12.00
2022-08-23T17:54:28.683Z,13.00
2022-08-23T17:57:32.547Z,7.00
2022-08-23T18:00:42.102Z,13.00
2022-08-23T18:03:51.720Z,13.67
2022-08-23T18:06:58.158Z,17.00
2022-08-23T18:10:02.726Z,12.67
2022-08-23T18:13:10.670Z,15.67
2022-08-23T18:16:16.421Z,17.00
2022-08-23T18:19:26.043Z,14.33
2022-08-23T18:22:31.286Z,17.00
2022-08-23T18:25:37.239Z,15.33
2022-08-23T18:28:43.085Z,15.00
2022-08-23T18:31:48.732Z,17.67
2022-08-23T18:34:54.351Z,15.33
2022-08-23T18:37:58.585Z,17.33
2022-08-23T18:41:03.757Z,15.33
2022-08-23T18:44:08.222Z,16.67
2022-08-23T18:47:38.641Z,18.67
2022-08-23T18:50:48.783Z,20.00
2022-08-23T18:53:56.703Z,17.33
2022-08-23T18:57:02.958Z,19.00
2022-08-23T19:00:11.058Z,20.00
2022-08-23T19:03:30.402Z,18.67
2022-08-23T19:06:46.022Z,19.67
2022-08-23T19:10:07.548Z,19.33
2022-08-23T19:13:14.062Z,18.00
2022-08-23T19:16:21.951Z,19.33
2022-08-23T19:19:29.794Z,17.33
2022-08-23T19:22:46.382Z,18.00
2022-08-23T19:25:55.495Z,18.00
2022-08-23T19:29:03.379Z,19.33
2022-08-23T19:32:07.841Z,18.67
2022-08-23T19:35:14.551Z,21.00
2022-08-23T19:38:19.747Z,20.00
2022-08-23T19:41:23.832Z,20.00
2022-08-23T19:44:32.899Z,19.67
2022-08-23T19:47:37.404Z,20.00
2022-08-23T19:50:44.023Z,18.67
2022-08-23T19:54:10.840Z,18.33
2022-08-23T19:57:16.612Z,20.00
2022-08-23T20:00:48.965Z,19.00
2022-08-23T20:07:48.447Z,17.33
2022-08-23T20:10:53.779Z,20.00
2022-08-23T20:13:58.423Z,19.00
2022-08-23T20:17:04.574Z,20.00
2022-08-23T20:20:37.338Z,20.00
2022-08-23T20:24:12.426Z,20.00
2022-08-23T20:27:24.157Z,20.00
2022-08-23T20:30:36.296Z,18.00
2022-08-23T20:33:44.529Z,18.67
2022-08-23T20:36:56.589Z,19.00
2022-08-23T20:40:01.712Z,20.00
2022-08-23T20:46:37.595Z,19.33
2022-08-23T20:49:41.499Z,19.00
2022-08-23T20:52:46.937Z,20.00
2022-08-23T20:55:52.976Z,18.33
2022-08-23T20:58:58.578Z,19.67
2022-08-23T21:02:02.326Z,18.67
2022-08-23T21:05:07.897Z,20.00
2022-08-23T21:08:13.092Z,16.67
2022-08-23T21:11:17.577Z,18.67
2022-08-23T21:14:23.858Z,18.67
2022-08-23T21:17:28.279Z,16.00
2022-08-23T21:20:33.461Z,17.67
2022-08-23T21:23:42.683Z,20.00
2022-08-23T21:26:46.600Z,18.00
2022-08-23T21:29:53.042Z,20.00
2022-08-23T21:32:57.369Z,17.67
2022-08-23T21:36:04.216Z,17.67
2022-08-23T21:39:08.634Z,19.00
2022-08-23T21:42:15.066Z,19.00
2022-08-23T21:45:21.465Z,19.00
2022-08-23T21:48:26.399Z,20.00
2022-08-23T21:51:35.604Z,19.67
2022-08-23T21:54:45.361Z,20.00
2022-08-23T21:57:52.624Z,20.00
2022-08-23T22:01:17.752Z,20.33
2022-08-23T22:04:26.730Z,21.00
2022-08-23T22:07:35.180Z,20.00
2022-08-23T22:10:40.654Z,20.00
2022-08-23T22:13:56.893Z,21.00
2022-08-23T22:17:05.133Z,20.00
2022-08-23T22:20:11.162Z,20.00
2022-08-23T22:23:15.481Z,19.67
2022-08-23T22:26:21.075Z,19.00
2022-08-23T22:29:26.369Z,20.00
2022-08-23T22:32:37.083Z,21.67
2022-08-23T22:35:41.484Z,21.00
2022-08-23T22:38:46.417Z,21.33
2022-08-23T22:41:52.895Z,20.00
2022-08-23T22:44:58.820Z,20.00
2022-08-23T22:48:04.602Z,19.33
2022-08-23T22:51:12.400Z,21.33
2022-08-23T22:54:16.739Z,20.67
2022-08-23T22:57:23.590Z,20.00
2022-08-23T23:00:29.265Z,23.00
2022-08-23T23:03:41.443Z,20.00
2022-08-23T23:06:46.778Z,20.00
2022-08-23T23:09:51.271Z,21.67
2022-08-23T23:12:55.215Z,21.00
2022-08-23T23:16:00.887Z,22.00
2022-08-23T23:19:24.721Z,20.00
2022-08-23T23:22:29.017Z,20.33
2022-08-23T23:25:34.697Z,21.00
2022-08-23T23:28:41.531Z,22.00
2022-08-23T23:31:46.104Z,20.00
2022-08-23T23:34:54.528Z,20.33
2022-08-23T23:38:02.554Z,20.00
2022-08-23T23:41:09.322Z,20.00
2022-08-23T23:44:13.364Z,22.67
2022-08-23T23:47:17.929Z,20.33
2022-08-23T23:50:25.131Z,20.00
2022-08-23T23:53:30.848Z,21.00
2022-08-23T23:56:35.066Z,22.00
2022-08-23T23:59:44.015Z,20.33
